sensor_id;sensor_type;location;lat;lon;timestamp;pressure;altitude;pressure_sealevel;temperature;humidity
62725;BME280;49026;52.600;4.694;2023-07-02T00:01:11;100695.50;;;15.87;65.77
62725;BME280;49026;52.600;4.694;2023-07-02T00:03:37;100687.94;;;15.81;65.93
62725;BME280;49026;52.600;4.694;2023-07-02T00:06:03;100682.94;;;15.77;66.02
62725;BME280;49026;52.600;4.694;2023-07-02T00:08:28;100682.94;;;15.77;64.78
62725;BME280;49026;52.600;4.694;2023-07-02T00:10:53;100687.72;;;15.70;65.34
62725;BME280;49026;52.600;4.694;2023-07-02T00:13:22;100681.97;;;15.63;65.57
62725;BME280;49026;52.600;4.694;2023-07-02T00:15:47;100676.41;;;15.53;65.87
62725;BME280;49026;52.600;4.694;2023-07-02T00:18:13;100674.19;;;15.47;65.83
62725;BME280;49026;52.600;4.694;2023-07-02T00:20:41;100673.44;;;15.45;66.00
62725;BME280;49026;52.600;4.694;2023-07-02T00:23:07;100672.66;;;15.43;65.74
62725;BME280;49026;52.600;4.694;2023-07-02T00:25:34;100670.41;;;15.37;66.23
62725;BME280;49026;52.600;4.694;2023-07-02T00:28:00;100662.38;;;15.38;66.02
62725;BME280;49026;52.600;4.694;2023-07-02T00:30:25;100677.50;;;15.36;66.09
62725;BME280;49026;52.600;4.694;2023-07-02T00:32:50;100670.88;;;15.29;66.48
62725;BME280;49026;52.600;4.694;2023-07-02T00:35:16;100670.50;;;15.21;66.69
62725;BME280;49026;52.600;4.694;2023-07-02T00:37:44;100676.66;;;15.22;66.75
62725;BME280;49026;52.600;4.694;2023-07-02T00:40:09;100671.56;;;15.18;66.85
62725;BME280;49026;52.600;4.694;2023-07-02T00:42:35;100670.69;;;15.18;66.89
62725;BME280;49026;52.600;4.694;2023-07-02T00:45:00;100663.81;;;15.15;67.19
62725;BME280;49026;52.600;4.694;2023-07-02T00:47:32;100660.38;;;15.13;67.19
62725;BME280;49026;52.600;4.694;2023-07-02T00:49:59;100665.50;;;15.16;67.21
62725;BME280;49026;52.600;4.694;2023-07-02T00:52:25;100665.31;;;15.19;67.12
62725;BME280;49026;52.600;4.694;2023-07-02T00:54:51;100652.34;;;15.15;67.27
62725;BME280;49026;52.600;4.694;2023-07-02T00:57:16;100663.63;;;15.18;67.19
62725;BME280;49026;52.600;4.694;2023-07-02T00:59:42;100673.91;;;15.23;66.95
62725;BME280;49026;52.600;4.694;2023-07-02T01:02:07;100682.81;;;15.22;66.80
62725;BME280;49026;52.600;4.694;2023-07-02T01:04:35;100668.44;;;15.26;66.45
62725;BME280;49026;52.600;4.694;2023-07-02T01:07:00;100670.88;;;15.29;66.44
62725;BME280;49026;52.600;4.694;2023-07-02T01:09:26;100671.53;;;15.33;65.51
62725;BME280;49026;52.600;4.694;2023-07-02T01:11:54;100667.00;;;15.35;65.93
62725;BME280;49026;52.600;4.694;2023-07-02T01:14:31;100666.44;;;15.30;65.65
62725;BME280;49026;52.600;4.694;2023-07-02T01:17:03;100655.38;;;15.23;65.97
62725;BME280;49026;52.600;4.694;2023-07-02T01:19:54;100676.66;;;15.22;65.31
62725;BME280;49026;52.600;4.694;2023-07-02T01:22:24;100670.59;;;15.19;65.64
62725;BME280;49026;52.600;4.694;2023-07-02T01:24:50;100674.00;;;15.22;65.18
62725;BME280;49026;52.600;4.694;2023-07-02T01:27:16;100668.69;;;15.22;65.74
62725;BME280;49026;52.600;4.694;2023-07-02T01:29:42;100672.31;;;15.21;65.28
62725;BME280;49026;52.600;4.694;2023-07-02T01:32:10;100677.78;;;15.17;65.62
62725;BME280;49026;52.600;4.694;2023-07-02T01:34:38;100669.19;;;15.14;65.65
62725;BME280;49026;52.600;4.694;2023-07-02T01:37:04;100663.03;;;15.13;65.46
62725;BME280;49026;52.600;4.694;2023-07-02T01:39:30;100668.91;;;15.18;64.94
62725;BME280;49026;52.600;4.694;2023-07-02T01:42:10;100671.56;;;15.18;64.91
62725;BME280;49026;52.600;4.694;2023-07-02T01:44:35;100676.97;;;15.17;65.43
62725;BME280;49026;52.600;4.694;2023-07-02T01:47:04;100673.53;;;15.15;65.67
62725;BME280;49026;52.600;4.694;2023-07-02T01:49:30;100672.88;;;15.11;65.76
62725;BME280;49026;52.600;4.694;2023-07-02T01:51:56;100675.44;;;15.13;65.72
62725;BME280;49026;52.600;4.694;2023-07-02T01:54:24;100670.13;;;15.13;66.12
62725;BME280;49026;52.600;4.694;2023-07-02T01:56:49;100666.75;;;15.11;66.28
62725;BME280;49026;52.600;4.694;2023-07-02T01:59:15;100677.59;;;15.06;66.53
62725;BME280;49026;52.600;4.694;2023-07-02T02:01:41;100674.31;;;15.03;66.60
62725;BME280;49026;52.600;4.694;2023-07-02T02:04:07;100671.75;;;15.01;66.56
62725;BME280;49026;52.600;4.694;2023-07-02T02:06:33;100672.59;;;15.01;66.19
62725;BME280;49026;52.600;4.694;2023-07-02T02:08:59;100671.75;;;15.01;66.58
62725;BME280;49026;52.600;4.694;2023-07-02T02:11:25;100683.66;;;14.94;66.70
62725;BME280;49026;52.600;4.694;2023-07-02T02:13:51;100675.72;;;14.94;66.58
62725;BME280;49026;52.600;4.694;2023-07-02T02:16:20;100677.63;;;14.92;66.88
62725;BME280;49026;52.600;4.694;2023-07-02T02:18:45;100676.16;;;14.86;66.85
62725;BME280;49026;52.600;4.694;2023-07-02T02:21:10;100690.53;;;14.82;67.15
62725;BME280;49026;52.600;4.694;2023-07-02T02:23:38;100687.25;;;14.78;67.38
62725;BME280;49026;52.600;4.694;2023-07-02T02:26:04;100679.75;;;14.71;67.40
62725;BME280;49026;52.600;4.694;2023-07-02T02:28:31;100681.56;;;14.70;67.58
62725;BME280;49026;52.600;4.694;2023-07-02T02:30:57;100684.94;;;14.72;67.71
62725;BME280;49026;52.600;4.694;2023-07-02T02:33:22;100690.06;;;14.75;67.60
62725;BME280;49026;52.600;4.694;2023-07-02T02:35:47;100689.88;;;14.78;67.33
62725;BME280;49026;52.600;4.694;2023-07-02T02:38:13;100689.97;;;14.77;67.63
62725;BME280;49026;52.600;4.694;2023-07-02T02:40:39;100699.00;;;14.73;67.50
62725;BME280;49026;52.600;4.694;2023-07-02T02:43:05;100656.78;;;14.71;67.62
62725;BME280;49026;52.600;4.694;2023-07-02T02:45:30;100706.28;;;14.69;67.53
62725;BME280;49026;52.600;4.694;2023-07-02T02:47:55;100706.38;;;14.68;67.68
62725;BME280;49026;52.600;4.694;2023-07-02T02:50:20;100703.66;;;14.69;67.66
62725;BME280;49026;52.600;4.694;2023-07-02T02:52:46;100693.25;;;14.66;67.60
62725;BME280;49026;52.600;4.694;2023-07-02T02:55:12;100699.66;;;14.62;67.80
62725;BME280;49026;52.600;4.694;2023-07-02T02:57:37;100698.88;;;14.60;68.10
62725;BME280;49026;52.600;4.694;2023-07-02T03:00:03;100707.09;;;14.55;67.98
62725;BME280;49026;52.600;4.694;2023-07-02T03:02:31;100693.19;;;14.52;68.35
62725;BME280;49026;52.600;4.694;2023-07-02T03:04:56;100692.22;;;14.53;68.41
62725;BME280;49026;52.600;4.694;2023-07-02T03:07:25;100708.28;;;14.50;68.49
62725;BME280;49026;52.600;4.694;2023-07-02T03:09:51;100698.56;;;14.50;68.75
62725;BME280;49026;52.600;4.694;2023-07-02T03:12:16;100696.94;;;14.48;68.79
62725;BME280;49026;52.600;4.694;2023-07-02T03:14:41;100689.00;;;14.48;69.38
62725;BME280;49026;52.600;4.694;2023-07-02T03:17:07;100688.94;;;14.49;69.13
62725;BME280;49026;52.600;4.694;2023-07-02T03:19:32;100708.28;;;14.50;69.39
62725;BME280;49026;52.600;4.694;2023-07-02T03:21:57;100710.34;;;14.44;69.17
62725;BME280;49026;52.600;4.694;2023-07-02T03:24:23;100713.34;;;14.38;69.17
62725;BME280;49026;52.600;4.694;2023-07-02T03:26:48;100708.06;;;14.38;69.36
62725;BME280;49026;52.600;4.694;2023-07-02T03:29:13;100717.78;;;14.38;69.43
62725;BME280;49026;52.600;4.694;2023-07-02T03:31:39;100726.56;;;14.38;69.65
62725;BME280;49026;52.600;4.694;2023-07-02T03:34:09;100712.56;;;14.36;69.66
62725;BME280;49026;52.600;4.694;2023-07-02T03:36:37;100717.69;;;14.39;69.65
62725;BME280;49026;52.600;4.694;2023-07-02T03:39:05;100718.53;;;14.40;69.57
62725;BME280;49026;52.600;4.694;2023-07-02T03:41:31;100724.69;;;14.40;69.55
62725;BME280;49026;52.600;4.694;2023-07-02T03:43:56;100733.19;;;14.45;69.86
62725;BME280;49026;52.600;4.694;2023-07-02T03:46:22;100727.66;;;14.50;70.05
62725;BME280;49026;52.600;4.694;2023-07-02T03:48:49;100735.28;;;14.55;69.97
62725;BME280;49026;52.600;4.694;2023-07-02T03:51:16;100731.56;;;14.59;70.17
62725;BME280;49026;52.600;4.694;2023-07-02T03:53:41;100733.97;;;14.63;70.24
62725;BME280;49026;52.600;4.694;2023-07-02T03:56:07;100737.44;;;14.64;70.35
62725;BME280;49026;52.600;4.694;2023-07-02T03:58:35;100745.28;;;14.66;70.29
62725;BME280;49026;52.600;4.694;2023-07-02T04:01:00;100736.31;;;14.68;70.19
62725;BME280;49026;52.600;4.694;2023-07-02T04:03:28;100745.97;;;14.69;70.22
62725;BME280;49026;52.600;4.694;2023-07-02T04:05:53;100747.66;;;14.70;70.23
62725;BME280;49026;52.600;4.694;2023-07-02T04:08:19;100747.66;;;14.70;70.46
62725;BME280;49026;52.600;4.694;2023-07-02T04:10:46;100741.25;;;14.74;70.70
62725;BME280;49026;52.600;4.694;2023-07-02T04:13:11;100748.66;;;14.84;70.82
62725;BME280;49026;52.600;4.694;2023-07-02T04:15:36;100748.25;;;14.90;70.67
62725;BME280;49026;52.600;4.694;2023-07-02T04:18:04;100753.28;;;14.94;70.66
62725;BME280;49026;52.600;4.694;2023-07-02T04:20:30;100755.09;;;14.94;70.80
62725;BME280;49026;52.600;4.694;2023-07-02T04:22:58;100754.22;;;14.93;70.84
62725;BME280;49026;52.600;4.694;2023-07-02T04:25:26;100756.97;;;14.92;70.88
62725;BME280;49026;52.600;4.694;2023-07-02T04:27:51;100762.28;;;14.92;70.79
62725;BME280;49026;52.600;4.694;2023-07-02T04:30:24;100753.03;;;14.99;70.70
62725;BME280;49026;52.600;4.694;2023-07-02T04:32:50;100750.19;;;15.02;70.25
62725;BME280;49026;52.600;4.694;2023-07-02T04:35:16;100754.53;;;15.03;69.90
62725;BME280;49026;52.600;4.694;2023-07-02T04:37:41;100759.44;;;15.09;69.41
62725;BME280;49026;52.600;4.694;2023-07-02T04:40:07;100760.03;;;15.14;69.81
62725;BME280;49026;52.600;4.694;2023-07-02T04:42:39;100766.94;;;15.17;69.89
62725;BME280;49026;52.600;4.694;2023-07-02T04:45:05;100760.97;;;15.13;70.17
62725;BME280;49026;52.600;4.694;2023-07-02T04:47:31;100773.81;;;15.05;70.49
62725;BME280;49026;52.600;4.694;2023-07-02T04:49:57;100750.38;;;14.99;70.69
62725;BME280;49026;52.600;4.694;2023-07-02T04:52:24;100769.06;;;14.96;70.79
62725;BME280;49026;52.600;4.694;2023-07-02T04:54:49;100767.09;;;14.99;70.63
62725;BME280;49026;52.600;4.694;2023-07-02T04:57:15;100768.53;;;15.05;69.91
62725;BME280;49026;52.600;4.694;2023-07-02T04:59:44;100760.41;;;15.23;69.14
62725;BME280;49026;52.600;4.694;2023-07-02T05:02:12;100762.78;;;15.56;68.81
62725;BME280;49026;52.600;4.694;2023-07-02T05:04:37;100764.56;;;15.70;69.08
62725;BME280;49026;52.600;4.694;2023-07-02T05:07:05;100763.44;;;15.60;69.20
62725;BME280;49026;52.600;4.694;2023-07-02T05:09:31;100776.97;;;15.41;69.34
62725;BME280;49026;52.600;4.694;2023-07-02T05:11:57;100779.03;;;15.21;69.68
62725;BME280;49026;52.600;4.694;2023-07-02T05:14:22;100777.88;;;15.11;69.66
62725;BME280;49026;52.600;4.694;2023-07-02T05:16:51;100786.03;;;15.22;69.89
62725;BME280;49026;52.600;4.694;2023-07-02T05:19:16;100771.75;;;15.53;69.76
62725;BME280;49026;52.600;4.694;2023-07-02T05:21:41;100775.09;;;15.57;69.45
62725;BME280;49026;52.600;4.694;2023-07-02T05:24:09;100782.84;;;15.46;69.58
62725;BME280;49026;52.600;4.694;2023-07-02T05:26:34;100792.78;;;15.42;69.88
62725;BME280;49026;52.600;4.694;2023-07-02T05:29:00;100769.84;;;15.70;69.63
62725;BME280;49026;52.600;4.694;2023-07-02T05:31:31;100789.06;;;16.02;69.33
62725;BME280;49026;52.600;4.694;2023-07-02T05:34:02;100799.56;;;16.04;69.23
62725;BME280;49026;52.600;4.694;2023-07-02T05:36:28;100799.28;;;16.36;68.52
62725;BME280;49026;52.600;4.694;2023-07-02T05:38:55;100798.47;;;16.48;68.17
62725;BME280;49026;52.600;4.694;2023-07-02T05:41:23;100794.00;;;16.48;68.63
62725;BME280;49026;52.600;4.694;2023-07-02T05:43:48;100810.75;;;16.36;68.87
62725;BME280;49026;52.600;4.694;2023-07-02T05:46:14;100804.16;;;16.15;69.32
62725;BME280;49026;52.600;4.694;2023-07-02T05:48:45;100812.22;;;15.99;69.47
62725;BME280;49026;52.600;4.694;2023-07-02T05:51:13;100799.13;;;16.24;68.19
62725;BME280;49026;52.600;4.694;2023-07-02T05:53:38;100803.09;;;16.72;66.45
62725;BME280;49026;52.600;4.694;2023-07-02T05:56:04;100808.19;;;16.89;65.03
62725;BME280;49026;52.600;4.694;2023-07-02T05:58:29;100811.38;;;17.07;63.60
62725;BME280;49026;52.600;4.694;2023-07-02T06:00:55;100800.16;;;17.29;63.46
62725;BME280;49026;52.600;4.694;2023-07-02T06:03:20;100805.25;;;17.45;63.28
62725;BME280;49026;52.600;4.694;2023-07-02T06:05:47;100810.78;;;17.68;63.03
62725;BME280;49026;52.600;4.694;2023-07-02T06:08:16;100819.56;;;17.81;62.62
62725;BME280;49026;52.600;4.694;2023-07-02T06:10:43;100815.13;;;17.56;61.85
62725;BME280;49026;52.600;4.694;2023-07-02T06:13:10;100811.50;;;17.57;62.55
62725;BME280;49026;52.600;4.694;2023-07-02T06:15:38;100825.41;;;17.73;62.09
62725;BME280;49026;52.600;4.694;2023-07-02T06:18:03;100834.75;;;17.79;63.01
62725;BME280;49026;52.600;4.694;2023-07-02T06:20:29;100815.44;;;17.90;62.98
62725;BME280;49026;52.600;4.694;2023-07-02T06:22:55;100822.22;;;17.94;63.00
62725;BME280;49026;52.600;4.694;2023-07-02T06:25:20;100830.31;;;17.80;63.40
62725;BME280;49026;52.600;4.694;2023-07-02T06:27:46;100830.31;;;17.54;64.24
62725;BME280;49026;52.600;4.694;2023-07-02T06:30:11;100841.16;;;17.25;65.58
62725;BME280;49026;52.600;4.694;2023-07-02T06:32:39;100831.53;;;16.97;65.79
62725;BME280;49026;52.600;4.694;2023-07-02T06:35:05;100836.22;;;16.79;66.48
62725;BME280;49026;52.600;4.694;2023-07-02T06:37:33;100850.66;;;16.75;66.83
62725;BME280;49026;52.600;4.694;2023-07-02T06:39:59;100849.47;;;16.66;66.61
62725;BME280;49026;52.600;4.694;2023-07-02T06:42:25;100847.22;;;16.60;67.24
62725;BME280;49026;52.600;4.694;2023-07-02T06:44:50;100858.28;;;16.66;67.06
62725;BME280;49026;52.600;4.694;2023-07-02T06:47:18;100858.19;;;16.68;66.80
62725;BME280;49026;52.600;4.694;2023-07-02T06:49:43;100852.03;;;16.67;66.79
62725;BME280;49026;52.600;4.694;2023-07-02T06:52:11;100863.94;;;16.75;66.73
62725;BME280;49026;52.600;4.694;2023-07-02T06:54:36;100854.44;;;16.85;66.83
62725;BME280;49026;52.600;4.694;2023-07-02T06:57:02;100851.72;;;16.99;66.55
62725;BME280;49026;52.600;4.694;2023-07-02T06:59:27;100863.44;;;17.10;66.54
62725;BME280;49026;52.600;4.694;2023-07-02T07:01:55;100861.91;;;17.06;66.39
62725;BME280;49026;52.600;4.694;2023-07-02T07:04:20;100861.31;;;17.15;65.97
62725;BME280;49026;52.600;4.694;2023-07-02T07:06:45;100865.78;;;17.14;65.71
62725;BME280;49026;52.600;4.694;2023-07-02T07:09:11;100864.72;;;17.17;66.29
62725;BME280;49026;52.600;4.694;2023-07-02T07:11:36;100862.78;;;17.19;66.26
62725;BME280;49026;52.600;4.694;2023-07-02T07:14:01;100871.75;;;17.31;67.38
62725;BME280;49026;52.600;4.694;2023-07-02T07:16:29;100873.56;;;17.43;66.33
62725;BME280;49026;52.600;4.694;2023-07-02T07:18:54;100879.41;;;17.35;66.26
62725;BME280;49026;52.600;4.694;2023-07-02T07:21:20;100887.81;;;17.29;66.20
62725;BME280;49026;52.600;4.694;2023-07-02T07:23:45;100885.56;;;17.36;67.11
62725;BME280;49026;52.600;4.694;2023-07-02T07:26:11;100900.44;;;17.38;66.28
62725;BME280;49026;52.600;4.694;2023-07-02T07:28:36;100895.88;;;17.28;66.17
62725;BME280;49026;52.600;4.694;2023-07-02T07:31:02;100904.69;;;17.28;66.51
62725;BME280;49026;52.600;4.694;2023-07-02T07:33:27;100900.88;;;17.45;65.35
62725;BME280;49026;52.600;4.694;2023-07-02T07:35:53;100903.84;;;17.53;65.35
62725;BME280;49026;52.600;4.694;2023-07-02T07:38:18;100914.81;;;17.62;66.14
62725;BME280;49026;52.600;4.694;2023-07-02T07:40:43;100912.69;;;17.80;66.97
62725;BME280;49026;52.600;4.694;2023-07-02T07:43:12;100909.63;;;17.99;66.86
62725;BME280;49026;52.600;4.694;2023-07-02T07:45:37;100905.25;;;18.10;66.64
62725;BME280;49026;52.600;4.694;2023-07-02T07:48:06;100904.81;;;18.17;66.68
62725;BME280;49026;52.600;4.694;2023-07-02T07:50:31;100911.31;;;18.12;66.26
62725;BME280;49026;52.600;4.694;2023-07-02T07:52:57;100908.56;;;18.01;66.26
62725;BME280;49026;52.600;4.694;2023-07-02T07:55:23;100918.69;;;17.96;65.33
62725;BME280;49026;52.600;4.694;2023-07-02T07:57:48;100932.69;;;17.85;65.41
62725;BME280;49026;52.600;4.694;2023-07-02T08:00:14;100920.69;;;17.80;64.72
62725;BME280;49026;52.600;4.694;2023-07-02T08:02:39;100931.81;;;17.72;64.93
62725;BME280;49026;52.600;4.694;2023-07-02T08:05:05;100937.34;;;17.69;65.76
62725;BME280;49026;52.600;4.694;2023-07-02T08:07:33;100939.63;;;17.88;65.96
62725;BME280;49026;52.600;4.694;2023-07-02T08:09:59;100933.44;;;18.00;65.64
62725;BME280;49026;52.600;4.694;2023-07-02T08:12:25;100936.84;;;18.02;64.78
62725;BME280;49026;52.600;4.694;2023-07-02T08:14:55;100953.66;;;18.03;65.04
62725;BME280;49026;52.600;4.694;2023-07-02T08:17:20;100950.25;;;18.26;64.57
62725;BME280;49026;52.600;4.694;2023-07-02T08:19:49;100946.91;;;18.48;65.04
62725;BME280;49026;52.600;4.694;2023-07-02T08:22:14;100940.69;;;18.61;64.98
62725;BME280;49026;52.600;4.694;2023-07-02T08:24:39;100951.09;;;18.64;64.96
62725;BME280;49026;52.600;4.694;2023-07-02T08:27:08;100954.22;;;18.58;63.86
62725;BME280;49026;52.600;4.694;2023-07-02T08:29:33;100958.47;;;18.47;65.24
62725;BME280;49026;52.600;4.694;2023-07-02T08:31:59;100950.91;;;18.54;65.32
62725;BME280;49026;52.600;4.694;2023-07-02T08:34:24;100948.84;;;18.70;65.83
62725;BME280;49026;52.600;4.694;2023-07-02T08:36:49;100952.00;;;18.88;65.80
62725;BME280;49026;52.600;4.694;2023-07-02T08:39:16;100962.41;;;19.04;65.24
62725;BME280;49026;52.600;4.694;2023-07-02T08:41:45;100965.91;;;19.05;64.82
62725;BME280;49026;52.600;4.694;2023-07-02T08:44:12;100961.88;;;19.23;64.38
62725;BME280;49026;52.600;4.694;2023-07-02T08:46:40;100965.84;;;19.18;63.92
62725;BME280;49026;52.600;4.694;2023-07-02T08:49:07;100968.78;;;19.02;63.78
62725;BME280;49026;52.600;4.694;2023-07-02T08:51:33;100955.97;;;19.07;64.72
62725;BME280;49026;52.600;4.694;2023-07-02T08:54:02;100964.53;;;18.99;62.72
62725;BME280;49026;52.600;4.694;2023-07-02T08:56:28;100976.09;;;18.74;62.52
62725;BME280;49026;52.600;4.694;2023-07-02T08:58:53;100959.56;;;18.58;63.40
62725;BME280;49026;52.600;4.694;2023-07-02T09:01:19;100975.38;;;18.59;63.71
62725;BME280;49026;52.600;4.694;2023-07-02T09:03:44;100975.88;;;18.77;63.66
62725;BME280;49026;52.600;4.694;2023-07-02T09:06:12;100974.50;;;18.72;62.57
62725;BME280;49026;52.600;4.694;2023-07-02T09:08:38;100977.78;;;18.75;63.75
62725;BME280;49026;52.600;4.694;2023-07-02T09:11:14;100981.38;;;19.00;62.57
62725;BME280;49026;52.600;4.694;2023-07-02T09:13:44;100985.06;;;19.10;62.14
62725;BME280;49026;52.600;4.694;2023-07-02T09:16:30;100992.03;;;19.00;62.11
62725;BME280;49026;52.600;4.694;2023-07-02T09:18:58;100991.94;;;18.88;61.96
62725;BME280;49026;52.600;4.694;2023-07-02T09:21:38;100978.53;;;19.14;63.65
62725;BME280;49026;52.600;4.694;2023-07-02T09:24:17;100980.63;;;19.57;63.04
62725;BME280;49026;52.600;4.694;2023-07-02T09:26:44;100989.13;;;19.62;62.95
62725;BME280;49026;52.600;4.694;2023-07-02T09:29:10;100998.47;;;19.33;61.47
62725;BME280;49026;52.600;4.694;2023-07-02T09:31:47;100984.03;;;19.00;60.95
62725;BME280;49026;52.600;4.694;2023-07-02T09:34:15;100984.47;;;18.94;62.70
62725;BME280;49026;52.600;4.694;2023-07-02T09:36:44;100975.53;;;19.19;62.60
62725;BME280;49026;52.600;4.694;2023-07-02T09:39:17;100969.13;;;19.21;61.84
62725;BME280;49026;52.600;4.694;2023-07-02T09:41:44;100980.34;;;19.38;61.83
62725;BME280;49026;52.600;4.694;2023-07-02T09:44:13;100991.25;;;19.46;61.10
62725;BME280;49026;52.600;4.694;2023-07-02T09:46:53;100990.75;;;19.41;61.33
62725;BME280;49026;52.600;4.694;2023-07-02T09:49:21;100992.00;;;19.48;61.40
62725;BME280;49026;52.600;4.694;2023-07-02T09:51:47;100986.50;;;19.74;62.68
62725;BME280;49026;52.600;4.694;2023-07-02T09:54:13;100985.38;;;20.01;62.59
62725;BME280;49026;52.600;4.694;2023-07-02T09:56:39;100991.72;;;20.33;63.01
62725;BME280;49026;52.600;4.694;2023-07-02T09:59:05;100997.25;;;20.53;62.34
62725;BME280;49026;52.600;4.694;2023-07-02T10:01:33;100999.34;;;20.49;60.43
62725;BME280;49026;52.600;4.694;2023-07-02T10:04:10;101001.53;;;20.22;61.36
62725;BME280;49026;52.600;4.694;2023-07-02T10:06:52;101009.88;;;20.06;62.18
62725;BME280;49026;52.600;4.694;2023-07-02T10:09:19;101020.50;;;19.94;61.78
62725;BME280;49026;52.600;4.694;2023-07-02T10:11:44;101011.31;;;19.98;62.16
62725;BME280;49026;52.600;4.694;2023-07-02T10:14:10;100994.84;;;20.05;59.99
62725;BME280;49026;52.600;4.694;2023-07-02T10:16:51;101012.25;;;19.86;61.35
62725;BME280;49026;52.600;4.694;2023-07-02T10:19:19;101013.97;;;19.87;61.48
62725;BME280;49026;52.600;4.694;2023-07-02T10:21:44;101018.22;;;19.90;60.60
62725;BME280;49026;52.600;4.694;2023-07-02T10:24:17;101010.59;;;19.96;61.80
62725;BME280;49026;52.600;4.694;2023-07-02T10:26:54;101024.41;;;20.13;61.69
62725;BME280;49026;52.600;4.694;2023-07-02T10:29:21;101011.69;;;20.05;60.65
62725;BME280;49026;52.600;4.694;2023-07-02T10:31:51;101022.13;;;20.08;60.94
62725;BME280;49026;52.600;4.694;2023-07-02T10:34:37;101023.25;;;20.28;60.91
62725;BME280;49026;52.600;4.694;2023-07-02T10:37:03;101021.44;;;20.40;60.28
62725;BME280;49026;52.600;4.694;2023-07-02T10:39:38;101015.84;;;20.43;61.11
62725;BME280;49026;52.600;4.694;2023-07-02T10:42:07;101023.38;;;20.72;61.83
62725;BME280;49026;52.600;4.694;2023-07-02T10:44:45;101021.47;;;21.06;59.76
62725;BME280;49026;52.600;4.694;2023-07-02T10:47:11;101039.00;;;20.99;59.77
62725;BME280;49026;52.600;4.694;2023-07-02T10:49:38;101025.06;;;20.84;60.09
62725;BME280;49026;52.600;4.694;2023-07-02T10:52:06;101038.19;;;20.76;60.62
62725;BME280;49026;52.600;4.694;2023-07-02T10:54:45;101020.44;;;20.86;59.27
62725;BME280;49026;52.600;4.694;2023-07-02T10:57:13;101026.53;;;20.88;57.89
62725;BME280;49026;52.600;4.694;2023-07-02T10:59:41;101044.13;;;20.57;58.91
62725;BME280;49026;52.600;4.694;2023-07-02T11:02:10;101039.38;;;20.61;60.27
62725;BME280;49026;52.600;4.694;2023-07-02T11:04:36;101037.81;;;20.69;58.40
62725;BME280;49026;52.600;4.694;2023-07-02T11:07:03;101022.03;;;20.55;58.00
62725;BME280;49026;52.600;4.694;2023-07-02T11:09:28;101048.97;;;20.41;59.35
62725;BME280;49026;52.600;4.694;2023-07-02T11:12:00;101040.69;;;20.32;57.22
62725;BME280;49026;52.600;4.694;2023-07-02T11:14:27;101043.81;;;20.04;58.40
62725;BME280;49026;52.600;4.694;2023-07-02T11:16:57;101045.50;;;19.93;58.79
62725;BME280;49026;52.600;4.694;2023-07-02T11:19:23;101055.22;;;20.06;59.34
62725;BME280;49026;52.600;4.694;2023-07-02T11:21:55;101049.56;;;20.22;59.00
62725;BME280;49026;52.600;4.694;2023-07-02T11:24:27;101062.41;;;20.39;57.51
62725;BME280;49026;52.600;4.694;2023-07-02T11:26:54;101042.28;;;20.35;56.57
62725;BME280;49026;52.600;4.694;2023-07-02T11:29:19;101052.22;;;20.33;56.48
62725;BME280;49026;52.600;4.694;2023-07-02T11:31:44;101049.44;;;20.23;55.21
62725;BME280;49026;52.600;4.694;2023-07-02T11:34:17;101049.50;;;19.99;55.43
62725;BME280;49026;52.600;4.694;2023-07-02T11:36:44;101057.38;;;20.01;57.01
62725;BME280;49026;52.600;4.694;2023-07-02T11:39:09;101044.69;;;20.15;57.57
62725;BME280;49026;52.600;4.694;2023-07-02T11:44:04;101053.59;;;20.50;57.77
62725;BME280;49026;52.600;4.694;2023-07-02T11:46:32;101053.09;;;20.56;57.08
62725;BME280;49026;52.600;4.694;2023-07-02T11:48:58;101059.28;;;20.57;57.84
62725;BME280;49026;52.600;4.694;2023-07-02T11:51:24;101057.63;;;20.78;58.10
62725;BME280;49026;52.600;4.694;2023-07-02T11:53:50;101060.84;;;20.93;57.03
62725;BME280;49026;52.600;4.694;2023-07-02T11:56:15;101057.97;;;20.85;57.20
62725;BME280;49026;52.600;4.694;2023-07-02T11:58:41;101051.16;;;20.92;54.31
62725;BME280;49026;52.600;4.694;2023-07-02T12:01:07;101056.75;;;20.66;55.62
62725;BME280;49026;52.600;4.694;2023-07-02T12:03:32;101060.06;;;20.70;56.57
62725;BME280;49026;52.600;4.694;2023-07-02T12:05:58;101065.72;;;20.99;56.37
62725;BME280;49026;52.600;4.694;2023-07-02T12:08:23;101058.88;;;21.18;55.79
62725;BME280;49026;52.600;4.694;2023-07-02T12:10:48;101058.03;;;21.17;55.99
62725;BME280;49026;52.600;4.694;2023-07-02T12:13:14;101067.34;;;21.23;55.02
62725;BME280;49026;52.600;4.694;2023-07-02T12:15:39;101064.78;;;21.33;55.48
62725;BME280;49026;52.600;4.694;2023-07-02T12:18:05;101065.03;;;21.73;56.55
62725;BME280;49026;52.600;4.694;2023-07-02T12:20:30;101073.06;;;21.94;54.31
62725;BME280;49026;52.600;4.694;2023-07-02T12:22:56;101068.34;;;21.65;53.37
62725;BME280;49026;52.600;4.694;2023-07-02T12:25:21;101078.09;;;21.88;55.45
62725;BME280;49026;52.600;4.694;2023-07-02T12:27:46;101082.69;;;21.97;54.29
62725;BME280;49026;52.600;4.694;2023-07-02T12:30:12;101086.78;;;22.01;54.08
62725;BME280;49026;52.600;4.694;2023-07-02T12:32:47;101089.84;;;21.96;54.57
62725;BME280;49026;52.600;4.694;2023-07-02T12:35:13;101089.72;;;21.98;54.08
62725;BME280;49026;52.600;4.694;2023-07-02T12:37:45;101089.09;;;21.73;53.06
62725;BME280;49026;52.600;4.694;2023-07-02T12:40:12;101105.56;;;21.57;53.75
62725;BME280;49026;52.600;4.694;2023-07-02T12:42:42;101105.94;;;21.41;53.40
62725;BME280;49026;52.600;4.694;2023-07-02T12:45:08;101101.84;;;21.26;53.43
62725;BME280;49026;52.600;4.694;2023-07-02T12:47:33;101098.69;;;21.32;54.09
62725;BME280;49026;52.600;4.694;2023-07-02T12:49:59;101105.00;;;21.31;53.23
62725;BME280;49026;52.600;4.694;2023-07-02T12:52:24;101106.13;;;21.28;53.91